createdAt,value
2019-05-05T00:00:05.160Z,20.30
2019-05-05T00:02:55.178Z,20.30
2019-05-05T00:05:31.556Z,20.70
2019-05-05T00:08:00.594Z,21.40
2019-05-05T00:10:34.760Z,21.50
2019-05-05T00:13:07.993Z,21.30
2019-05-05T00:15:55.159Z,21.80
2019-05-05T00:18:25.630Z,21.50
2019-05-05T00:20:55.225Z,21.90
2019-05-05T00:25:55.248Z,22.00
2019-05-05T00:28:24.921Z,21.90
2019-05-05T00:30:55.414Z,21.70
2019-05-05T00:33:24.874Z,21.90
2019-05-05T00:35:54.546Z,21.50
2019-05-05T00:38:24.877Z,21.60
2019-05-05T00:40:55.027Z,21.80
2019-05-05T00:43:25.268Z,21.60
2019-05-05T00:45:55.824Z,21.70
2019-05-05T00:48:44.464Z,21.30
2019-05-05T00:51:14.980Z,21.50
2019-05-05T00:53:44.849Z,21.60
2019-05-05T00:56:14.393Z,21.20
2019-05-05T00:58:45.031Z,21.20
2019-05-05T01:01:18.505Z,21.20
2019-05-05T01:03:47.359Z,22.20
2019-05-05T01:06:25.505Z,21.90
2019-05-05T01:08:55.061Z,21.40
2019-05-05T01:11:25.081Z,21.80
2019-05-05T01:13:55.083Z,22.00
2019-05-05T01:16:24.740Z,21.80
2019-05-05T01:18:55.367Z,22.00
2019-05-05T01:21:24.562Z,22.10
2019-05-05T01:23:54.807Z,22.20
2019-05-05T01:26:24.823Z,22.20
2019-05-05T01:28:56.156Z,22.00
2019-05-05T01:31:25.249Z,22.30
2019-05-05T01:33:58.571Z,22.50
2019-05-05T01:36:27.355Z,21.90
2019-05-05T01:41:37.291Z,22.60
2019-05-05T01:44:06.131Z,22.60
2019-05-05T01:46:35.434Z,22.70
2019-05-05T01:49:05.316Z,22.70
2019-05-05T01:51:35.462Z,22.30
2019-05-05T01:54:05.352Z,22.50
2019-05-05T01:56:35.226Z,22.30
2019-05-05T01:59:05.294Z,23.10
2019-05-05T02:01:35.207Z,23.30
2019-05-05T02:04:05.520Z,23.10
2019-05-05T02:09:06.254Z,23.40
2019-05-05T02:11:35.485Z,23.40
2019-05-05T02:16:34.707Z,23.20
2019-05-05T02:19:05.048Z,23.50
2019-05-05T02:21:35.342Z,23.70
2019-05-05T02:24:05.203Z,23.90
2019-05-05T02:29:11.518Z,23.80
2019-05-05T02:31:58.056Z,23.30
2019-05-05T02:34:28.702Z,23.90
2019-05-05T02:36:57.619Z,23.20
2019-05-05T02:39:26.393Z,23.50
2019-05-05T02:41:56.611Z,23.90
2019-05-05T02:44:27.393Z,24.10
2019-05-05T02:47:01.023Z,24.00
2019-05-05T02:49:30.905Z,24.10
2019-05-05T02:52:00.436Z,24.20
2019-05-05T02:54:33.879Z,23.80
2019-05-05T02:57:04.607Z,23.90
2019-05-05T02:59:35.376Z,24.50
2019-05-05T03:02:06.034Z,24.30
2019-05-05T03:04:35.128Z,24.30
2019-05-05T03:07:05.940Z,24.50
2019-05-05T03:09:55.540Z,24.50
2019-05-05T03:12:25.677Z,24.50
2019-05-05T03:14:57.825Z,24.70
2019-05-05T03:17:26.958Z,25.20
2019-05-05T03:19:56.556Z,25.10
2019-05-05T03:22:26.561Z,24.90
2019-05-05T03:24:56.029Z,25.50
2019-05-05T03:29:53.629Z,24.70
2019-05-05T03:32:25.376Z,25.00
2019-05-05T03:34:53.763Z,24.60
2019-05-05T03:37:44.499Z,25.00
2019-05-05T03:40:14.899Z,24.50
2019-05-05T03:42:54.666Z,24.40
2019-05-05T03:45:25.304Z,25.40
2019-05-05T03:47:54.365Z,25.10
2019-05-05T03:50:23.771Z,25.20
2019-05-05T03:52:54.429Z,25.20
2019-05-05T03:57:53.804Z,25.90
2019-05-05T04:00:26.129Z,25.60
2019-05-05T04:02:56.533Z,25.70
2019-05-05T04:05:26.926Z,25.40
2019-05-05T04:07:56.158Z,25.90
2019-05-05T04:10:24.924Z,26.20
2019-05-05T04:15:24.425Z,25.50
2019-05-05T04:18:14.635Z,25.90
2019-05-05T04:20:44.164Z,26.00
2019-05-05T04:23:14.175Z,25.80
2019-05-05T04:25:43.924Z,26.00
2019-05-05T04:28:13.598Z,25.80
2019-05-05T04:30:44.469Z,25.90
2019-05-05T04:33:14.193Z,26.10
2019-05-05T04:35:44.409Z,25.70
2019-05-05T04:38:14.029Z,26.10
2019-05-05T04:40:43.633Z,25.90
2019-05-05T04:43:14.272Z,25.60
2019-05-05T04:48:17.177Z,25.90
2019-05-05T04:50:47.669Z,25.80
2019-05-05T04:58:24.278Z,25.70
2019-05-05T05:00:54.675Z,25.70
2019-05-05T05:03:43.946Z,25.50
2019-05-05T05:06:14.694Z,26.00
2019-05-05T05:08:44.343Z,25.70
2019-05-05T05:11:14.155Z,25.70
2019-05-05T05:13:44.033Z,25.40
2019-05-05T05:16:13.881Z,25.30
2019-05-05T05:18:44.623Z,25.20
2019-05-05T05:21:14.572Z,25.00
2019-05-05T05:23:44.356Z,24.80
2019-05-05T05:26:13.978Z,24.70
2019-05-05T05:28:44.778Z,24.50
2019-05-05T05:31:14.136Z,24.60
2019-05-05T05:33:43.725Z,24.80
2019-05-05T05:36:14.440Z,24.70
2019-05-05T05:41:37.364Z,24.80
2019-05-05T05:44:10.484Z,25.00
2019-05-05T05:46:43.917Z,25.50
2019-05-05T05:49:14.457Z,25.20
2019-05-05T05:51:44.700Z,25.20
2019-05-05T05:54:14.145Z,25.40
2019-05-05T05:56:44.657Z,25.40
2019-05-05T05:59:14.090Z,25.70
2019-05-05T06:01:43.782Z,25.40
2019-05-05T06:04:14.451Z,25.90
2019-05-05T06:06:43.867Z,25.90
2019-05-05T06:09:14.683Z,26.00
2019-05-05T06:14:14.437Z,25.60
2019-05-05T06:16:44.651Z,25.70
2019-05-05T06:19:14.084Z,25.70
2019-05-05T06:21:44.014Z,25.80
2019-05-05T06:24:13.599Z,25.80
2019-05-05T06:26:44.564Z,26.10
2019-05-05T06:31:44.814Z,25.40
2019-05-05T06:34:14.023Z,24.90
2019-05-05T06:36:44.457Z,24.00
2019-05-05T06:39:13.687Z,23.90
2019-05-05T06:41:44.259Z,23.60
2019-05-05T06:44:17.661Z,23.70
2019-05-05T06:49:31.147Z,23.50
2019-05-05T06:51:59.202Z,23.30
2019-05-05T06:54:27.971Z,23.00
2019-05-05T06:56:56.832Z,22.80
2019-05-05T06:59:25.593Z,22.70
2019-05-05T07:01:54.401Z,22.60
2019-05-05T07:04:24.524Z,22.80
2019-05-05T07:06:56.920Z,22.40
2019-05-05T07:09:24.553Z,22.50
2019-05-05T07:11:54.107Z,22.90
2019-05-05T07:14:23.655Z,22.80
2019-05-05T07:16:54.436Z,22.50
2019-05-05T07:19:23.961Z,22.50
2019-05-05T07:21:53.810Z,21.80
2019-05-05T07:24:23.849Z,21.60
2019-05-05T07:26:54.172Z,21.40
2019-05-05T07:29:23.903Z,21.30
2019-05-05T07:31:54.520Z,21.40
2019-05-05T07:34:24.658Z,21.70
2019-05-05T07:36:54.803Z,21.80
2019-05-05T07:39:23.958Z,21.80
2019-05-05T07:41:54.200Z,22.00
2019-05-05T07:44:29.031Z,22.00
2019-05-05T07:49:24.298Z,21.90
2019-05-05T07:51:54.732Z,22.10
2019-05-05T07:54:23.759Z,22.10
2019-05-05T07:56:53.891Z,22.50
2019-05-05T07:59:23.850Z,22.30
2019-05-05T08:01:54.760Z,22.30
2019-05-05T08:04:24.261Z,22.00
2019-05-05T08:06:53.935Z,21.50
2019-05-05T08:09:24.839Z,21.00
2019-05-05T08:11:54.176Z,20.40
2019-05-05T08:14:24.603Z,20.40
2019-05-05T08:16:54.788Z,20.10
2019-05-05T08:19:41.033Z,19.30
2019-05-05T08:22:09.560Z,18.50
2019-05-05T08:24:56.158Z,18.30
2019-05-05T08:27:44.755Z,18.40
2019-05-05T08:30:24.294Z,18.20
2019-05-05T08:35:23.768Z,19.20
2019-05-05T08:37:54.223Z,19.20
2019-05-05T08:40:24.027Z,18.60
2019-05-05T08:42:53.920Z,18.40
2019-05-05T08:45:26.456Z,18.10
2019-05-05T08:47:54.226Z,18.50
2019-05-05T08:50:26.773Z,18.20
2019-05-05T08:52:53.715Z,16.70
2019-05-05T08:55:44.090Z,14.20
2019-05-05T08:58:12.108Z,15.50
2019-05-05T09:00:40.608Z,14.30
2019-05-05T09:03:09.121Z,14.70
2019-05-05T09:05:37.610Z,15.40
2019-05-05T09:08:06.264Z,16.30
2019-05-05T09:10:34.924Z,17.80
2019-05-05T09:13:04.125Z,19.40
2019-05-05T09:15:33.691Z,19.90
2019-05-05T09:18:04.935Z,19.40
2019-05-05T09:20:34.809Z,22.10
2019-05-05T09:23:04.313Z,21.10
2019-05-05T09:25:37.567Z,21.40
2019-05-05T09:28:44.468Z,21.70
2019-05-05T09:31:14.466Z,21.70
2019-05-05T09:33:44.240Z,21.00
2019-05-05T09:36:13.976Z,18.80
2019-05-05T09:38:44.581Z,19.10
2019-05-05T09:41:14.369Z,17.20
2019-05-05T09:43:44.604Z,17.10
2019-05-05T09:46:14.362Z,17.70
2019-05-05T09:48:44.025Z,18.70
2019-05-05T09:51:13.642Z,18.70
2019-05-05T09:53:44.610Z,19.00
2019-05-05T09:56:14.511Z,19.60
2019-05-05T09:58:44.072Z,19.60
2019-05-05T10:01:14.045Z,19.30
2019-05-05T10:03:44.552Z,20.60
2019-05-05T10:06:14.226Z,19.90
2019-05-05T10:08:44.678Z,19.10
2019-05-05T10:11:16.355Z,19.20
2019-05-05T10:16:14.280Z,20.10
2019-05-05T10:18:44.798Z,17.90
2019-05-05T10:21:17.590Z,21.20
2019-05-05T10:23:46.387Z,20.90
2019-05-05T10:26:15.096Z,21.30
2019-05-05T10:29:04.210Z,20.60
2019-05-05T10:31:34.591Z,20.90
2019-05-05T10:34:05.012Z,20.10
2019-05-05T10:36:39.607Z,18.20
2019-05-05T10:39:12.656Z,18.80
2019-05-05T10:41:41.154Z,17.90
2019-05-05T10:44:09.762Z,17.20
2019-05-05T10:46:38.413Z,17.30
2019-05-05T10:49:06.976Z,17.00
2019-05-05T10:51:35.775Z,16.00
2019-05-05T10:54:04.376Z,14.80
2019-05-05T10:56:34.540Z,16.10
2019-05-05T10:59:03.935Z,15.90
2019-05-05T11:01:32.569Z,14.10
2019-05-05T11:04:01.271Z,13.80
2019-05-05T11:06:29.960Z,12.90
2019-05-05T11:08:58.597Z,14.00
2019-05-05T11:11:27.188Z,13.20
2019-05-05T11:13:56.520Z,12.00
2019-05-05T11:16:25.047Z,13.40
2019-05-05T11:18:54.150Z,12.70
2019-05-05T11:21:23.680Z,12.60
2019-05-05T11:23:53.874Z,11.90
2019-05-05T11:26:24.530Z,11.30
2019-05-05T11:28:53.866Z,11.60
2019-05-05T11:31:23.963Z,12.20
2019-05-05T11:34:05.978Z,12.40
2019-05-05T11:36:38.914Z,11.60
2019-05-05T11:39:07.920Z,12.40
2019-05-05T11:41:36.501Z,12.00
2019-05-05T11:44:05.131Z,11.30
2019-05-05T11:46:34.028Z,10.40
2019-05-05T11:49:04.747Z,9.70
2019-05-05T11:51:34.191Z,8.10
2019-05-05T11:54:04.627Z,7.60
2019-05-05T11:56:33.975Z,7.40
2019-05-05T11:59:03.949Z,7.40
2019-05-05T12:01:32.717Z,7.20
2019-05-05T12:04:04.069Z,8.50
2019-05-05T12:06:33.973Z,8.40
2019-05-05T12:09:04.313Z,8.70
2019-05-05T12:11:34.522Z,9.10
2019-05-05T12:14:04.937Z,9.10
2019-05-05T12:16:34.743Z,9.30
2019-05-05T12:19:05.119Z,8.80
2019-05-05T12:21:33.851Z,8.00
2019-05-05T12:24:04.088Z,7.50
2019-05-05T12:26:35.595Z,7.30
2019-05-05T12:29:06.025Z,8.00
2019-05-05T12:31:39.225Z,8.20
2019-05-05T12:34:07.717Z,8.00
2019-05-05T12:36:36.294Z,7.80
2019-05-05T12:39:07.115Z,9.40
2019-05-05T12:46:41.682Z,10.80
2019-05-05T12:49:13.724Z,11.30
2019-05-05T12:51:43.857Z,10.60
2019-05-05T12:54:14.502Z,10.70
2019-05-05T12:56:44.558Z,11.60
2019-05-05T12:59:14.657Z,11.50
2019-05-05T13:01:44.084Z,10.30
2019-05-05T13:04:14.121Z,10.10
2019-05-05T13:06:44.887Z,8.50
2019-05-05T13:09:14.394Z,8.70
2019-05-05T13:11:43.625Z,7.00
2019-05-05T13:14:14.042Z,6.60
2019-05-05T13:16:50.580Z,3.60
2019-05-05T13:19:14.748Z,3.60
2019-05-05T13:21:45.084Z,1.00
2019-05-05T13:24:24.300Z,1.00
2019-05-05T13:26:54.422Z,1.00
2019-05-05T13:29:24.638Z,1.00
2019-05-05T13:31:54.444Z,1.00
2019-05-05T13:34:23.203Z,1.00
2019-05-05T13:36:51.770Z,1.00
2019-05-05T13:39:20.357Z,1.00
2019-05-05T13:44:19.023Z,3.30
2019-05-05T13:49:17.333Z,4.70
2019-05-05T13:56:44.138Z,4.70
2019-05-05T14:01:44.770Z,3.30
2019-05-05T14:04:13.456Z,3.40
2019-05-05T14:06:44.008Z,3.50
2019-05-05T14:09:13.808Z,2.20
2019-05-05T14:11:44.414Z,1.00
2019-05-05T14:14:13.844Z,1.00
2019-05-05T14:16:44.475Z,1.00
2019-05-05T14:19:14.661Z,1.00
2019-05-05T14:21:44.615Z,1.00
2019-05-05T14:24:20.904Z,1.00
2019-05-05T14:26:49.535Z,1.00
2019-05-05T14:29:35.599Z,1.00
2019-05-05T14:32:05.269Z,1.00
2019-05-05T14:34:38.067Z,1.00
2019-05-05T14:37:11.067Z,1.00
2019-05-05T14:39:38.538Z,1.00
2019-05-05T14:42:07.012Z,1.00
2019-05-05T14:44:35.603Z,1.00
2019-05-05T14:47:04.161Z,1.00
2019-05-05T14:49:34.004Z,1.00
2019-05-05T15:29:36.976Z,4.50
2019-05-05T15:32:05.540Z,4.90
2019-05-05T15:34:34.437Z,5.10
2019-05-05T15:37:03.897Z,3.50
2019-05-05T15:39:33.653Z,2.80
2019-05-05T15:42:04.455Z,1.00
2019-05-05T15:44:34.351Z,1.00
2019-05-05T15:47:02.694Z,1.00
2019-05-05T15:49:31.222Z,1.00
2019-05-05T15:51:59.712Z,1.00
2019-05-05T15:54:28.203Z,1.00
2019-05-05T15:57:05.405Z,1.00
2019-05-05T15:59:29.166Z,1.00
2019-05-05T16:01:57.458Z,1.00
2019-05-05T16:04:25.964Z,1.00
2019-05-05T16:06:54.512Z,1.00
2019-05-05T16:09:23.132Z,1.00
2019-05-05T16:11:51.643Z,1.00
2019-05-05T16:14:20.947Z,1.00
2019-05-05T16:16:56.897Z,1.00
2019-05-05T16:19:35.857Z,1.00
2019-05-05T16:22:11.851Z,1.00
2019-05-05T16:24:41.981Z,1.00
2019-05-05T16:27:21.522Z,1.00
2019-05-05T16:29:40.747Z,1.00
2019-05-05T16:32:19.587Z,1.00
2019-05-05T16:34:39.673Z,1.00
2019-05-05T16:37:08.181Z,1.00
2019-05-05T16:39:36.671Z,1.00
2019-05-05T16:42:05.255Z,1.00
2019-05-05T16:44:34.123Z,1.00
2019-05-05T16:47:04.536Z,1.00
2019-05-05T16:49:35.301Z,1.00
2019-05-05T16:52:04.822Z,1.00
2019-05-05T16:54:35.030Z,1.00
2019-05-05T16:57:03.967Z,1.00
2019-05-05T16:59:34.179Z,1.00
2019-05-05T17:02:04.581Z,1.00
2019-05-05T17:04:32.983Z,1.00
2019-05-05T17:07:01.494Z,1.00
2019-05-05T17:09:30.042Z,1.00
2019-05-05T17:12:10.163Z,1.00
2019-05-05T17:14:44.447Z,1.00
2019-05-05T17:17:29.217Z,1.00
2019-05-05T17:20:02.038Z,1.00
2019-05-05T17:22:35.058Z,1.00
2019-05-05T17:25:04.106Z,1.00
2019-05-05T17:27:47.087Z,1.00
2019-05-05T17:30:04.468Z,1.00
2019-05-05T18:00:34.327Z,7.00
2019-05-05T18:35:54.070Z,10.90
2019-05-05T18:40:53.792Z,11.40
2019-05-05T18:43:24.377Z,12.00
2019-05-05T18:46:04.596Z,12.30
2019-05-05T18:51:03.942Z,13.30
2019-05-05T18:53:34.162Z,13.40
2019-05-05T18:56:03.774Z,13.80
2019-05-05T18:58:39.950Z,13.90
2019-05-05T19:01:28.270Z,12.40
2019-05-05T19:04:04.533Z,12.90
2019-05-05T19:06:51.047Z,13.00
2019-05-05T19:09:24.916Z,13.70
2019-05-05T19:11:54.596Z,14.70
2019-05-05T19:14:24.329Z,15.10
2019-05-05T19:16:55.455Z,15.80
2019-05-05T19:19:27.120Z,15.90
2019-05-05T19:22:14.825Z,15.50
2019-05-05T19:24:44.133Z,15.90
2019-05-05T19:27:14.221Z,16.10
2019-05-05T19:32:13.451Z,16.30
2019-05-05T19:34:43.918Z,16.00
2019-05-05T19:37:13.978Z,15.90
2019-05-05T19:42:11.486Z,16.50
2019-05-05T19:44:40.283Z,16.90
2019-05-05T19:52:16.965Z,16.90
2019-05-05T19:54:47.543Z,17.50
2019-05-05T19:57:16.524Z,17.10
2019-05-05T20:02:13.817Z,16.70
2019-05-05T20:04:44.469Z,17.40
2019-05-05T20:07:14.000Z,17.40
2019-05-05T20:09:43.545Z,17.80
2019-05-05T20:14:43.593Z,18.20
2019-05-05T20:17:16.845Z,18.50
2019-05-05T20:19:45.923Z,18.80
2019-05-05T20:22:14.883Z,19.20
2019-05-05T20:24:44.354Z,17.60
2019-05-05T20:32:13.766Z,19.60
2019-05-05T20:37:14.296Z,19.60
2019-05-05T20:39:43.904Z,19.40
2019-05-05T20:44:43.729Z,19.70
2019-05-05T20:47:12.790Z,19.90
2019-05-05T20:49:41.549Z,20.00
2019-05-05T20:52:10.352Z,20.10
2019-05-05T20:54:39.247Z,20.20
2019-05-05T20:57:08.108Z,19.90
2019-05-05T20:59:36.910Z,20.00
2019-05-05T21:02:05.758Z,20.30
2019-05-05T21:07:04.503Z,20.00
2019-05-05T21:09:34.488Z,20.00
2019-05-05T21:12:04.694Z,19.80
2019-05-05T21:14:37.271Z,20.00
2019-05-05T21:17:04.339Z,20.40
2019-05-05T21:24:50.099Z,20.70
2019-05-05T21:27:18.895Z,20.40
2019-05-05T21:29:47.662Z,20.90
2019-05-05T21:32:16.514Z,21.10
2019-05-05T21:37:14.299Z,21.30
2019-05-05T21:39:45.322Z,20.80
2019-05-05T21:42:14.152Z,21.50
2019-05-05T21:44:44.214Z,21.60
2019-05-05T21:47:14.179Z,21.60
2019-05-05T21:49:43.114Z,22.00
2019-05-05T21:54:50.457Z,22.10
2019-05-05T21:57:20.913Z,22.20
2019-05-05T21:59:55.467Z,22.10
2019-05-05T22:02:20.474Z,22.40
2019-05-05T22:14:43.919Z,22.90
2019-05-05T22:17:14.652Z,22.70
2019-05-05T22:22:14.668Z,22.90
2019-05-05T22:27:13.897Z,22.90
2019-05-05T22:32:14.013Z,23.00
2019-05-05T22:37:14.273Z,23.10
2019-05-05T22:42:13.712Z,23.20
2019-05-05T22:44:43.985Z,23.20
2019-05-05T22:54:44.430Z,23.20
2019-05-05T22:57:14.004Z,23.20
2019-05-05T22:59:43.053Z,23.10
2019-05-05T23:02:14.497Z,23.00
2019-05-05T23:04:47.671Z,23.00
2019-05-05T23:09:46.596Z,23.60
2019-05-05T23:14:44.071Z,23.00
2019-05-05T23:17:30.467Z,23.00
2019-05-05T23:22:37.485Z,22.90
2019-05-05T23:30:20.441Z,22.60
2019-05-05T23:32:49.277Z,22.60
2019-05-05T23:35:18.488Z,22.70
2019-05-05T23:40:24.754Z,22.70
2019-05-05T23:42:54.246Z,22.50
2019-05-05T23:45:24.772Z,22.50
2019-05-05T23:47:54.520Z,22.70
2019-05-05T23:50:24.174Z,22.80
2019-05-05T23:52:54.441Z,23.00
2019-05-05T23:55:24.139Z,22.80
2019-05-05T23:57:54.776Z,23.00
